createdAt,value
2023-05-01T00:17:58.459Z,13.15
2023-05-01T00:48:16.625Z,13.05
2023-05-01T01:18:32.138Z,12.75
2023-05-01T01:48:49.886Z,12.5
2023-05-01T02:19:07.903Z,12.2
2023-05-01T02:49:27.511Z,11.75
2023-05-01T03:19:43.836Z,11.55
2023-05-01T03:50:00.264Z,11.55
2023-05-01T04:20:18.558Z,11.55
2023-05-01T04:50:36.352Z,11.8
2023-05-01T05:20:54.514Z,12.2
2023-05-01T05:51:13.930Z,12.55
2023-05-01T06:21:35.365Z,13.35
2023-05-01T06:51:58.324Z,15.4
2023-05-01T07:22:25.264Z,16.15
2023-05-01T07:52:40.580Z,16
2023-05-01T08:22:58.000Z,16.4
2023-05-01T09:23:44.129Z,21.05
2023-05-01T09:54:16.644Z,22.65
2023-05-01T10:24:29.855Z,22.5
2023-05-01T10:54:50.120Z,22.85
2023-05-01T11:25:08.057Z,23.75
2023-05-01T11:55:30.395Z,23.3
2023-05-01T12:25:40.861Z,24
2023-05-01T12:55:59.906Z,22.95
2023-05-01T13:26:27.723Z,25.3
2023-05-01T13:56:41.516Z,22.85
2023-05-01T14:26:42.113Z,21.4
2023-05-01T14:56:58.017Z,20.8
2023-05-01T15:27:17.573Z,20.05
2023-05-01T15:57:33.654Z,19.75
2023-05-01T16:27:51.280Z,19.15
2023-05-01T16:58:07.482Z,18.8
2023-05-01T17:28:24.276Z,18.75
2023-05-01T17:58:45.461Z,18.45
2023-05-01T18:29:02.726Z,18.1
2023-05-01T18:59:19.139Z,17.5
2023-05-01T19:29:36.637Z,16.4
2023-05-01T19:59:53.343Z,15.7
2023-05-01T20:30:11.681Z,15.15
2023-05-01T21:00:28.555Z,14.85
2023-05-01T21:30:46.723Z,14.75
2023-05-01T22:01:04.196Z,14.55
2023-05-01T22:31:22.808Z,14.45
2023-05-01T23:01:40.180Z,14.25
2023-05-01T23:31:56.271Z,13.65
